This is the latest recevied weather packets stored in our database for station/object KI7CSN-13. If no packets are shown the sender has not sent any weather packets the latest 1 day(s).
| Time | Temp. | Humidity | Pressure | Rain* | Wind** | Luminosity | Snow |
|---|---|---|---|---|---|---|---|
| 1778039259 | 13.33° C | 37% | 980.6 hPa | 0 mm | - | - | - |
| 1778038959 | 13.33° C | 36% | 980.5 hPa | 0 mm | - | - | - |
| 1778038359 | 13.33° C | 37% | 980.4 hPa | 0 mm | - | - | - |
| 1778038059 | 13.33° C | 36% | 980.4 hPa | 0 mm | - | - | - |
| 1778037759 | 13.33° C | 37% | 980.4 hPa | 0 mm | - | - | - |
| 1778037459 | 13.33° C | 37% | 980.3 hPa | 0 mm | - | - | - |
| 1778037159 | 13.33° C | 36% | 980.3 hPa | 0 mm | - | - | - |
| 1778036859 | 13.33° C | 36% | 980.2 hPa | 0 mm | - | - | - |
| 1778036559 | 13.89° C | 35% | 980.2 hPa | 0 mm | - | - | - |
| 1778035959 | 14.44° C | 35% | 979.9 hPa | 0 mm | - | - | - |
| 1778035059 | 14.44° C | 35% | 979.8 hPa | 0 mm | - | - | - |
| 1778034759 | 14.44° C | 35% | 979.8 hPa | 0 mm | - | - | - |
| 1778034459 | 14.44° C | 34% | 979.7 hPa | 0 mm | - | - | - |
| 1778033559 | 15° C | 33% | 979.5 hPa | 0 mm | - | - | - |
| 1778027560 | 16.67° C | 32% | 978.4 hPa | 0 mm | - | - | - |
| 1778026660 | 17.78° C | 31% | 978.4 hPa | 0 mm | - | - | - |
| 1778026360 | 17.22° C | 31% | 978.2 hPa | 0 mm | - | - | - |
| 1778025760 | 17.22° C | 31% | 978.2 hPa | 0 mm | - | - | - |
| 1778025460 | 17.22° C | 31% | 978 hPa | 0 mm | - | - | - |
| 1778025160 | 17.22° C | 31% | 978 hPa | 0 mm | - | - | - |
| 1778024860 | 16.67° C | 32% | 978.1 hPa | 0 mm | - | - | - |
| 1778024560 | 17.22° C | 31% | 978 hPa | 0 mm | - | - | - |
| 1778024260 | 17.78° C | 31% | 978 hPa | 0 mm | - | - | - |
| 1778023960 | 16.67° C | 31% | 978.1 hPa | 0 mm | - | - | - |
| 1778023661 | 17.22° C | 31% | 977.9 hPa | 0 mm | - | - | - |
* Rain latest hour (hover to see other rain measurements)
** Current wind speed in m/s (hover to see current wind gust speed)